sensor_id;sensor_type;location;lat;lon;timestamp;pressure;altitude;pressure_sealevel;temperature;humidity
64821;BME280;51256;55.654;37.264;2022-07-10T00:00:38;98656.25;;;18.98;70.29
64821;BME280;51256;55.654;37.264;2022-07-10T00:03:04;98645.94;;;18.94;69.96
64821;BME280;51256;55.654;37.264;2022-07-10T00:05:30;98648.34;;;19.03;69.93
64821;BME280;51256;55.654;37.264;2022-07-10T00:07:56;98649.78;;;19.05;69.94
64821;BME280;51256;55.654;37.264;2022-07-10T00:10:22;98630.13;;;19.05;69.95
64821;BME280;51256;55.654;37.264;2022-07-10T00:12:50;98637.66;;;19.21;69.58
64821;BME280;51256;55.654;37.264;2022-07-10T00:15:17;98629.97;;;19.25;69.46
64821;BME280;51256;55.654;37.264;2022-07-10T00:17:43;98640.59;;;19.38;69.48
64821;BME280;51256;55.654;37.264;2022-07-10T00:20:10;98643.69;;;19.42;69.56
64821;BME280;51256;55.654;37.264;2022-07-10T00:22:37;98644.06;;;19.46;69.19
64821;BME280;51256;55.654;37.264;2022-07-10T00:25:06;98638.44;;;19.47;69.42
64821;BME280;51256;55.654;37.264;2022-07-10T00:27:32;98637.84;;;19.45;69.17
64821;BME280;51256;55.654;37.264;2022-07-10T00:29:58;98638.88;;;19.44;69.83
64821;BME280;51256;55.654;37.264;2022-07-10T00:32:24;98618.31;;;19.31;69.80
64821;BME280;51256;55.654;37.264;2022-07-10T00:34:50;98624.06;;;19.35;70.07
64821;BME280;51256;55.654;37.264;2022-07-10T00:37:16;98613.94;;;19.37;69.71
64821;BME280;51256;55.654;37.264;2022-07-10T00:39:41;98610.38;;;19.36;70.12
64821;BME280;51256;55.654;37.264;2022-07-10T00:42:12;98617.19;;;19.39;70.27
64821;BME280;51256;55.654;37.264;2022-07-10T00:44:42;98610.38;;;19.36;70.03
64821;BME280;51256;55.654;37.264;2022-07-10T00:47:09;98602.31;;;19.36;70.01
64821;BME280;51256;55.654;37.264;2022-07-10T00:49:36;98604.97;;;19.43;69.86
64821;BME280;51256;55.654;37.264;2022-07-10T00:52:06;98604.63;;;19.33;70.08
64821;BME280;51256;55.654;37.264;2022-07-10T00:54:33;98607.41;;;19.26;70.41
64821;BME280;51256;55.654;37.264;2022-07-10T00:56:59;98613.66;;;19.20;70.98
64821;BME280;51256;55.654;37.264;2022-07-10T00:59:25;98602.50;;;19.16;71.03
64821;BME280;51256;55.654;37.264;2022-07-10T01:01:51;98595.25;;;19.17;71.10
64821;BME280;51256;55.654;37.264;2022-07-10T01:04:17;98584.28;;;19.18;70.78
64821;BME280;51256;55.654;37.264;2022-07-10T01:06:43;98576.22;;;19.18;71.03
64821;BME280;51256;55.654;37.264;2022-07-10T01:09:08;98571.97;;;19.10;70.82
64821;BME280;51256;55.654;37.264;2022-07-10T01:11:34;98565.03;;;18.96;70.98
64821;BME280;51256;55.654;37.264;2022-07-10T01:14:04;98565.72;;;18.85;71.28
64821;BME280;51256;55.654;37.264;2022-07-10T01:16:31;98562.72;;;18.74;71.51
64821;BME280;51256;55.654;37.264;2022-07-10T01:18:57;98574.94;;;18.70;71.67
64821;BME280;51256;55.654;37.264;2022-07-10T01:21:27;98562.34;;;18.71;71.37
64821;BME280;51256;55.654;37.264;2022-07-10T01:23:53;98563.53;;;18.75;71.44
64821;BME280;51256;55.654;37.264;2022-07-10T01:26:19;98582.13;;;18.76;71.27
64821;BME280;51256;55.654;37.264;2022-07-10T01:28:48;98577.63;;;18.70;71.37
64821;BME280;51256;55.654;37.264;2022-07-10T01:31:14;98588.59;;;18.69;71.53
64821;BME280;51256;55.654;37.264;2022-07-10T01:33:41;98598.72;;;18.73;71.18
64821;BME280;51256;55.654;37.264;2022-07-10T01:36:07;98601.34;;;18.80;70.66
64821;BME280;51256;55.654;37.264;2022-07-10T01:38:32;98592.84;;;18.83;70.35
64821;BME280;51256;55.654;37.264;2022-07-10T01:40:58;98577.50;;;18.90;70.29
64821;BME280;51256;55.654;37.264;2022-07-10T01:43:23;98564.44;;;18.94;69.80
64821;BME280;51256;55.654;37.264;2022-07-10T01:45:49;98552.91;;;18.87;69.47
64821;BME280;51256;55.654;37.264;2022-07-10T01:48:14;98548.41;;;18.80;69.76
64821;BME280;51256;55.654;37.264;2022-07-10T01:50:40;98537.25;;;18.77;69.60
64821;BME280;51256;55.654;37.264;2022-07-10T01:53:05;98542.19;;;18.80;69.56
64821;BME280;51256;55.654;37.264;2022-07-10T01:55:32;98538.47;;;18.81;69.40
64821;BME280;51256;55.654;37.264;2022-07-10T01:57:57;98544.44;;;18.83;69.23
64821;BME280;51256;55.654;37.264;2022-07-10T02:00:23;98550.78;;;18.89;69.38
64821;BME280;51256;55.654;37.264;2022-07-10T02:02:49;98548.91;;;18.96;68.95
64821;BME280;51256;55.654;37.264;2022-07-10T02:05:34;98553.31;;;19.09;68.66
64821;BME280;51256;55.654;37.264;2022-07-10T02:08:00;98553.81;;;19.24;68.37
64821;BME280;51256;55.654;37.264;2022-07-10T02:10:28;98564.59;;;19.43;68.15
64821;BME280;51256;55.654;37.264;2022-07-10T02:12:54;98567.34;;;19.55;67.58
64821;BME280;51256;55.654;37.264;2022-07-10T02:15:21;98570.19;;;19.60;67.28
64821;BME280;51256;55.654;37.264;2022-07-10T02:17:47;98577.97;;;19.68;66.90
64821;BME280;51256;55.654;37.264;2022-07-10T02:20:13;98581.94;;;19.84;66.35
64821;BME280;51256;55.654;37.264;2022-07-10T02:22:38;98591.03;;;20.02;65.35
64821;BME280;51256;55.654;37.264;2022-07-10T02:25:04;98587.25;;;20.21;64.74
64821;BME280;51256;55.654;37.264;2022-07-10T02:27:30;98586.16;;;20.41;63.86
64821;BME280;51256;55.654;37.264;2022-07-10T02:29:55;98587.13;;;20.58;62.89
64821;BME280;51256;55.654;37.264;2022-07-10T02:32:21;98586.25;;;20.77;62.66
64821;BME280;51256;55.654;37.264;2022-07-10T02:34:47;98592.97;;;20.86;62.61
64821;BME280;51256;55.654;37.264;2022-07-10T02:37:12;98599.53;;;21.02;62.35
64821;BME280;51256;55.654;37.264;2022-07-10T02:39:38;98599.44;;;21.09;61.77
64821;BME280;51256;55.654;37.264;2022-07-10T02:42:04;98601.09;;;21.10;62.11
64821;BME280;51256;55.654;37.264;2022-07-10T02:44:29;98580.53;;;20.85;62.26
64821;BME280;51256;55.654;37.264;2022-07-10T02:46:55;98591.66;;;20.77;62.55
64821;BME280;51256;55.654;37.264;2022-07-10T02:49:20;98588.44;;;20.68;62.93
64821;BME280;51256;55.654;37.264;2022-07-10T02:51:46;98585.38;;;20.64;63.04
64821;BME280;51256;55.654;37.264;2022-07-10T02:54:11;98583.75;;;20.63;63.46
64821;BME280;51256;55.654;37.264;2022-07-10T02:56:37;98590.31;;;20.67;63.45
64821;BME280;51256;55.654;37.264;2022-07-10T02:59:02;98593.16;;;20.72;63.61
64821;BME280;51256;55.654;37.264;2022-07-10T03:01:28;98593.59;;;20.69;63.71
64821;BME280;51256;55.654;37.264;2022-07-10T03:03:53;98593.34;;;20.59;64.08
64821;BME280;51256;55.654;37.264;2022-07-10T03:06:19;98583.34;;;20.48;64.45
64821;BME280;51256;55.654;37.264;2022-07-10T03:08:44;98588.63;;;20.42;64.80
64821;BME280;51256;55.654;37.264;2022-07-10T03:11:10;98592.84;;;20.38;65.09
64821;BME280;51256;55.654;37.264;2022-07-10T03:13:35;98594.69;;;20.38;65.11
64821;BME280;51256;55.654;37.264;2022-07-10T03:16:01;98597.75;;;20.41;65.26
64821;BME280;51256;55.654;37.264;2022-07-10T03:18:26;98596.94;;;20.41;65.40
64821;BME280;51256;55.654;37.264;2022-07-10T03:20:52;98600.69;;;20.40;65.41
64821;BME280;51256;55.654;37.264;2022-07-10T03:23:17;98604.19;;;20.40;65.25
64821;BME280;51256;55.654;37.264;2022-07-10T03:25:43;98596.94;;;20.41;65.18
64821;BME280;51256;55.654;37.264;2022-07-10T03:28:08;98610.66;;;20.51;65.09
64821;BME280;51256;55.654;37.264;2022-07-10T03:30:34;98604.00;;;20.54;65.18
64821;BME280;51256;55.654;37.264;2022-07-10T03:32:59;98615.16;;;20.69;65.18
64821;BME280;51256;55.654;37.264;2022-07-10T03:35:25;98615.34;;;20.75;65.08
64821;BME280;51256;55.654;37.264;2022-07-10T03:37:51;98609.88;;;20.63;65.05
64821;BME280;51256;55.654;37.264;2022-07-10T03:40:16;98610.84;;;20.68;64.99
64821;BME280;51256;55.654;37.264;2022-07-10T03:42:42;98606.03;;;20.70;65.02
64821;BME280;51256;55.654;37.264;2022-07-10T03:45:08;98595.47;;;20.69;65.29
64821;BME280;51256;55.654;37.264;2022-07-10T03:47:34;98580.59;;;20.66;65.39
64821;BME280;51256;55.654;37.264;2022-07-10T03:49:59;98562.88;;;20.58;65.38
64821;BME280;51256;55.654;37.264;2022-07-10T03:52:24;98551.91;;;20.41;65.48
64821;BME280;51256;55.654;37.264;2022-07-10T03:54:50;98534.75;;;20.12;66.08
64821;BME280;51256;55.654;37.264;2022-07-10T03:57:18;98526.84;;;19.99;66.30
64821;BME280;51256;55.654;37.264;2022-07-10T04:00:03;98490.16;;;19.86;66.66
64821;BME280;51256;55.654;37.264;2022-07-10T04:02:28;98480.66;;;19.65;67.50
64821;BME280;51256;55.654;37.264;2022-07-10T04:04:54;98499.00;;;19.37;68.38
64821;BME280;51256;55.654;37.264;2022-07-10T04:07:20;98501.19;;;19.28;68.60
64821;BME280;51256;55.654;37.264;2022-07-10T04:09:45;98514.78;;;19.34;68.80
64821;BME280;51256;55.654;37.264;2022-07-10T04:12:11;98524.13;;;19.50;68.33
64821;BME280;51256;55.654;37.264;2022-07-10T04:14:36;98514.63;;;19.66;68.08
64821;BME280;51256;55.654;37.264;2022-07-10T04:17:02;98517.28;;;19.84;67.54
64821;BME280;51256;55.654;37.264;2022-07-10T04:19:28;98524.75;;;20.01;67.25
64821;BME280;51256;55.654;37.264;2022-07-10T04:21:53;98525.00;;;20.11;66.82
64821;BME280;51256;55.654;37.264;2022-07-10T04:24:18;98546.78;;;20.40;66.44
64821;BME280;51256;55.654;37.264;2022-07-10T04:26:44;98559.94;;;20.60;66.19
64821;BME280;51256;55.654;37.264;2022-07-10T04:29:10;98558.47;;;20.76;65.67
64821;BME280;51256;55.654;37.264;2022-07-10T04:31:35;98558.94;;;20.85;65.35
64821;BME280;51256;55.654;37.264;2022-07-10T04:34:01;98558.13;;;20.96;65.47
64821;BME280;51256;55.654;37.264;2022-07-10T04:36:26;98563.88;;;21.00;65.53
64821;BME280;51256;55.654;37.264;2022-07-10T04:38:52;98566.59;;;21.00;65.75
64821;BME280;51256;55.654;37.264;2022-07-10T04:41:17;98551.78;;;21.02;65.92
64821;BME280;51256;55.654;37.264;2022-07-10T04:43:42;98557.78;;;21.16;65.41
64821;BME280;51256;55.654;37.264;2022-07-10T04:46:08;98556.94;;;21.28;65.33
64821;BME280;51256;55.654;37.264;2022-07-10T04:48:33;98551.09;;;21.31;65.08
64821;BME280;51256;55.654;37.264;2022-07-10T04:50:59;98557.41;;;21.48;64.89
64821;BME280;51256;55.654;37.264;2022-07-10T04:53:24;98546.22;;;21.68;64.46
64821;BME280;51256;55.654;37.264;2022-07-10T04:55:50;98535.81;;;21.89;63.90
64821;BME280;51256;55.654;37.264;2022-07-10T04:58:15;98533.38;;;22.05;63.42
64821;BME280;51256;55.654;37.264;2022-07-10T05:00:41;98532.41;;;22.11;63.07
64821;BME280;51256;55.654;37.264;2022-07-10T05:03:06;98530.03;;;22.14;62.85
64821;BME280;51256;55.654;37.264;2022-07-10T05:05:32;98528.19;;;22.15;62.41
64821;BME280;51256;55.654;37.264;2022-07-10T05:07:57;98530.13;;;22.19;61.92
64821;BME280;51256;55.654;37.264;2022-07-10T05:10:25;98521.72;;;22.16;61.62
64821;BME280;51256;55.654;37.264;2022-07-10T05:12:52;98535.97;;;22.28;61.47
64821;BME280;51256;55.654;37.264;2022-07-10T05:15:18;98531.94;;;22.43;61.32
64821;BME280;51256;55.654;37.264;2022-07-10T05:17:43;98527.81;;;22.57;61.00
64821;BME280;51256;55.654;37.264;2022-07-10T05:20:09;98527.56;;;22.76;60.54
64821;BME280;51256;55.654;37.264;2022-07-10T05:22:35;98515.69;;;22.94;59.60
64821;BME280;51256;55.654;37.264;2022-07-10T05:25:01;98514.19;;;23.03;59.14
64821;BME280;51256;55.654;37.264;2022-07-10T05:27:26;98516.78;;;23.15;58.69
64821;BME280;51256;55.654;37.264;2022-07-10T05:29:52;98522.75;;;23.34;58.07
64821;BME280;51256;55.654;37.264;2022-07-10T05:32:17;98518.03;;;23.46;58.05
64821;BME280;51256;55.654;37.264;2022-07-10T05:34:43;98519.41;;;23.71;57.61
64821;BME280;51256;55.654;37.264;2022-07-10T05:37:08;98526.56;;;24.05;56.54
64821;BME280;51256;55.654;37.264;2022-07-10T05:39:34;98524.97;;;24.36;56.15
64821;BME280;51256;55.654;37.264;2022-07-10T05:42:00;98513.31;;;24.36;55.46
64821;BME280;51256;55.654;37.264;2022-07-10T05:44:25;98521.66;;;24.29;55.61
64821;BME280;51256;55.654;37.264;2022-07-10T05:46:51;98513.75;;;24.27;55.81
64821;BME280;51256;55.654;37.264;2022-07-10T05:49:16;98519.84;;;24.40;55.44
64821;BME280;51256;55.654;37.264;2022-07-10T05:51:42;98518.59;;;24.53;55.18
64821;BME280;51256;55.654;37.264;2022-07-10T05:54:07;98514.91;;;24.64;54.88
64821;BME280;51256;55.654;37.264;2022-07-10T05:56:33;98516.38;;;24.77;54.94
64821;BME280;51256;55.654;37.264;2022-07-10T05:58:59;98507.72;;;24.80;54.95
64821;BME280;51256;55.654;37.264;2022-07-10T06:01:25;98502.00;;;24.76;54.81
64821;BME280;51256;55.654;37.264;2022-07-10T06:03:51;98512.91;;;24.87;54.62
64821;BME280;51256;55.654;37.264;2022-07-10T06:06:17;98516.75;;;24.96;54.50
64821;BME280;51256;55.654;37.264;2022-07-10T06:08:43;98517.63;;;25.02;54.71
64821;BME280;51256;55.654;37.264;2022-07-10T06:11:08;98513.81;;;25.03;54.52
64821;BME280;51256;55.654;37.264;2022-07-10T06:13:34;98513.03;;;25.13;54.19
64821;BME280;51256;55.654;37.264;2022-07-10T06:15:59;98521.50;;;25.21;53.99
64821;BME280;51256;55.654;37.264;2022-07-10T06:18:26;98504.97;;;25.23;54.08
64821;BME280;51256;55.654;37.264;2022-07-10T06:20:51;98512.84;;;25.24;54.14
64821;BME280;51256;55.654;37.264;2022-07-10T06:23:16;98512.72;;;25.04;54.39
64821;BME280;51256;55.654;37.264;2022-07-10T06:25:42;98511.13;;;24.65;54.84
64821;BME280;51256;55.654;37.264;2022-07-10T06:28:07;98511.41;;;24.36;55.84
64821;BME280;51256;55.654;37.264;2022-07-10T06:30:33;98503.47;;;24.29;55.88
64821;BME280;51256;55.654;37.264;2022-07-10T06:32:58;98512.19;;;24.32;55.85
64821;BME280;51256;55.654;37.264;2022-07-10T06:35:24;98511.66;;;24.35;55.58
64821;BME280;51256;55.654;37.264;2022-07-10T06:37:49;98519.19;;;24.60;55.05
64821;BME280;51256;55.654;37.264;2022-07-10T06:40:17;98537.91;;;24.89;54.69
64821;BME280;51256;55.654;37.264;2022-07-10T06:42:44;98536.94;;;25.11;54.28
64821;BME280;51256;55.654;37.264;2022-07-10T06:45:10;98531.31;;;25.28;53.49
64821;BME280;51256;55.654;37.264;2022-07-10T06:47:35;98544.50;;;25.51;53.00
64821;BME280;51256;55.654;37.264;2022-07-10T06:50:19;98534.28;;;25.74;52.65
64821;BME280;51256;55.654;37.264;2022-07-10T06:52:46;98531.91;;;25.93;52.12
64821;BME280;51256;55.654;37.264;2022-07-10T06:55:12;98542.50;;;26.00;51.93
64821;BME280;51256;55.654;37.264;2022-07-10T06:57:38;98546.59;;;26.02;52.14
64821;BME280;51256;55.654;37.264;2022-07-10T07:00:05;98546.13;;;26.16;52.04
64821;BME280;51256;55.654;37.264;2022-07-10T07:02:31;98550.22;;;26.34;52.06
64821;BME280;51256;55.654;37.264;2022-07-10T07:04:57;98548.84;;;26.26;51.58
64821;BME280;51256;55.654;37.264;2022-07-10T07:07:22;98546.09;;;26.11;51.86
64821;BME280;51256;55.654;37.264;2022-07-10T07:09:47;98547.47;;;26.08;52.11
64821;BME280;51256;55.654;37.264;2022-07-10T07:12:16;98548.25;;;26.09;51.99
64821;BME280;51256;55.654;37.264;2022-07-10T07:14:42;98556.44;;;26.24;51.90
64821;BME280;51256;55.654;37.264;2022-07-10T07:17:08;98547.25;;;26.41;51.59
64821;BME280;51256;55.654;37.264;2022-07-10T07:19:36;98548.88;;;26.57;51.54
64821;BME280;51256;55.654;37.264;2022-07-10T07:22:21;98551.31;;;26.64;51.53
64821;BME280;51256;55.654;37.264;2022-07-10T07:25:07;98546.44;;;26.56;51.74
64821;BME280;51256;55.654;37.264;2022-07-10T07:27:34;98546.41;;;26.40;51.75
64821;BME280;51256;55.654;37.264;2022-07-10T07:30:09;98553.47;;;26.20;52.38
64821;BME280;51256;55.654;37.264;2022-07-10T07:32:45;98544.13;;;25.96;52.97
64821;BME280;51256;55.654;37.264;2022-07-10T07:35:12;98539.97;;;25.67;53.78
64821;BME280;51256;55.654;37.264;2022-07-10T07:37:41;98533.69;;;25.56;54.03
64821;BME280;51256;55.654;37.264;2022-07-10T07:40:09;98543.72;;;25.56;54.26
64821;BME280;51256;55.654;37.264;2022-07-10T07:42:35;98546.19;;;25.63;54.13
64821;BME280;51256;55.654;37.264;2022-07-10T07:45:01;98548.97;;;25.73;54.15
64821;BME280;51256;55.654;37.264;2022-07-10T07:47:26;98552.81;;;25.93;53.63
64821;BME280;51256;55.654;37.264;2022-07-10T07:49:52;98544.47;;;26.10;53.30
64821;BME280;51256;55.654;37.264;2022-07-10T07:52:18;98561.09;;;26.39;52.88
64821;BME280;51256;55.654;37.264;2022-07-10T07:54:43;98557.84;;;26.47;52.56
64821;BME280;51256;55.654;37.264;2022-07-10T07:57:09;98555.97;;;26.53;52.02
64821;BME280;51256;55.654;37.264;2022-07-10T07:59:34;98559.47;;;26.43;51.57
64821;BME280;51256;55.654;37.264;2022-07-10T08:02:00;98561.91;;;26.34;51.54
64821;BME280;51256;55.654;37.264;2022-07-10T08:04:26;98560.53;;;26.21;51.81
64821;BME280;51256;55.654;37.264;2022-07-10T08:06:51;98552.34;;;26.11;52.03
64821;BME280;51256;55.654;37.264;2022-07-10T08:09:19;98562.41;;;26.05;52.28
64821;BME280;51256;55.654;37.264;2022-07-10T08:11:44;98560.97;;;25.93;52.26
64821;BME280;51256;55.654;37.264;2022-07-10T08:14:10;98548.69;;;25.80;52.45
64821;BME280;51256;55.654;37.264;2022-07-10T08:16:35;98543.25;;;25.74;52.68
64821;BME280;51256;55.654;37.264;2022-07-10T08:19:01;98540.44;;;25.54;52.97
64821;BME280;51256;55.654;37.264;2022-07-10T08:21:26;98538.66;;;25.27;53.05
64821;BME280;51256;55.654;37.264;2022-07-10T08:23:52;98556.31;;;25.24;53.47
64821;BME280;51256;55.654;37.264;2022-07-10T08:26:19;98544.59;;;25.19;53.71
64821;BME280;51256;55.654;37.264;2022-07-10T08:28:44;98527.56;;;25.34;53.30
64821;BME280;51256;55.654;37.264;2022-07-10T08:31:10;98539.63;;;25.53;53.19
64821;BME280;51256;55.654;37.264;2022-07-10T08:33:36;98539.47;;;25.76;52.39
64821;BME280;51256;55.654;37.264;2022-07-10T08:36:01;98542.50;;;26.00;52.15
64821;BME280;51256;55.654;37.264;2022-07-10T08:38:27;98531.44;;;26.12;51.83
64821;BME280;51256;55.654;37.264;2022-07-10T08:40:54;98514.81;;;26.13;51.54
64821;BME280;51256;55.654;37.264;2022-07-10T08:43:25;98521.09;;;26.34;51.28
64821;BME280;51256;55.654;37.264;2022-07-10T08:45:51;98513.75;;;26.40;51.15
64821;BME280;51256;55.654;37.264;2022-07-10T08:48:22;98509.66;;;26.37;51.10
64821;BME280;51256;55.654;37.264;2022-07-10T08:50:52;98520.56;;;26.37;51.15
64821;BME280;51256;55.654;37.264;2022-07-10T08:53:29;98511.31;;;26.38;51.01
64821;BME280;51256;55.654;37.264;2022-07-10T08:55:55;98511.56;;;26.52;50.43
64821;BME280;51256;55.654;37.264;2022-07-10T08:58:22;98509.41;;;26.75;49.64
64821;BME280;51256;55.654;37.264;2022-07-10T09:00:48;98512.63;;;26.98;49.41
64821;BME280;51256;55.654;37.264;2022-07-10T09:03:13;98517.78;;;27.15;49.08
64821;BME280;51256;55.654;37.264;2022-07-10T09:05:39;98500.88;;;27.13;48.70
64821;BME280;51256;55.654;37.264;2022-07-10T09:08:21;98492.19;;;27.11;48.86
64821;BME280;51256;55.654;37.264;2022-07-10T09:10:47;98502.59;;;26.93;49.49
64821;BME280;51256;55.654;37.264;2022-07-10T09:13:13;98488.97;;;26.83;49.94
64821;BME280;51256;55.654;37.264;2022-07-10T09:15:38;98483.03;;;26.76;49.83
64821;BME280;51256;55.654;37.264;2022-07-10T09:18:05;98492.81;;;26.82;49.86
64821;BME280;51256;55.654;37.264;2022-07-10T09:20:36;98492.72;;;27.08;49.79
64821;BME280;51256;55.654;37.264;2022-07-10T09:23:22;98483.59;;;27.59;48.54
64821;BME280;51256;55.654;37.264;2022-07-10T09:25:50;98485.22;;;28.10;47.01
64821;BME280;51256;55.654;37.264;2022-07-10T09:28:18;98491.41;;;28.21;45.89
64821;BME280;51256;55.654;37.264;2022-07-10T09:30:44;98478.03;;;28.19;44.83
64821;BME280;51256;55.654;37.264;2022-07-10T09:43:57;98469.81;;;27.19;45.35
64821;BME280;51256;55.654;37.264;2022-07-10T09:46:25;98472.06;;;26.96;45.61
64821;BME280;51256;55.654;37.264;2022-07-10T09:49:20;98462.59;;;26.78;45.65
64821;BME280;51256;55.654;37.264;2022-07-10T09:51:53;98457.41;;;26.61;46.04
64821;BME280;51256;55.654;37.264;2022-07-10T09:54:19;98459.31;;;26.66;46.00
64821;BME280;51256;55.654;37.264;2022-07-10T09:56:48;98454.94;;;26.70;46.06
64821;BME280;51256;55.654;37.264;2022-07-10T09:59:17;98459.84;;;26.83;46.42
64821;BME280;51256;55.654;37.264;2022-07-10T10:04:10;98462.28;;;26.90;46.41
64821;BME280;51256;55.654;37.264;2022-07-10T10:06:36;98454.63;;;26.97;46.05
64821;BME280;51256;55.654;37.264;2022-07-10T10:09:07;98446.16;;;27.09;45.40
64821;BME280;51256;55.654;37.264;2022-07-10T10:11:35;98457.28;;;27.23;44.67
64821;BME280;51256;55.654;37.264;2022-07-10T10:14:02;98451.44;;;27.50;43.52
64821;BME280;51256;55.654;37.264;2022-07-10T10:16:29;98465.66;;;27.92;43.20
64821;BME280;51256;55.654;37.264;2022-07-10T10:18:55;98465.38;;;28.34;42.28
64821;BME280;51256;55.654;37.264;2022-07-10T10:21:39;98464.00;;;28.66;41.95
64821;BME280;51256;55.654;37.264;2022-07-10T10:24:05;98467.19;;;28.78;41.47
64821;BME280;51256;55.654;37.264;2022-07-10T10:26:32;98467.72;;;28.80;41.06
64821;BME280;51256;55.654;37.264;2022-07-10T10:29:00;98457.41;;;28.72;40.89
64821;BME280;51256;55.654;37.264;2022-07-10T10:31:27;98458.19;;;28.77;41.01
64821;BME280;51256;55.654;37.264;2022-07-10T10:33:55;98447.72;;;28.85;40.57
64821;BME280;51256;55.654;37.264;2022-07-10T10:41:41;98470.50;;;28.99;40.77
64821;BME280;51256;55.654;37.264;2022-07-10T10:46:34;98469.59;;;29.33;40.12
64821;BME280;51256;55.654;37.264;2022-07-10T10:49:07;98468.25;;;29.31;40.35
64821;BME280;51256;55.654;37.264;2022-07-10T10:51:59;98465.09;;;29.18;40.09
64821;BME280;51256;55.654;37.264;2022-07-10T10:54:26;98466.66;;;29.00;38.97
64821;BME280;51256;55.654;37.264;2022-07-10T10:57:18;98463.22;;;28.89;38.24
64821;BME280;51256;55.654;37.264;2022-07-10T10:59:52;98464.91;;;28.85;38.13
64821;BME280;51256;55.654;37.264;2022-07-10T11:08:04;98485.09;;;28.89;38.71
64821;BME280;51256;55.654;37.264;2022-07-10T11:10:37;98480.69;;;28.93;38.22
64821;BME280;51256;55.654;37.264;2022-07-10T11:13:14;98477.78;;;28.85;38.66
64821;BME280;51256;55.654;37.264;2022-07-10T11:15:49;98468.75;;;28.84;39.19
64821;BME280;51256;55.654;37.264;2022-07-10T11:18:19;98478.75;;;28.94;38.87
64821;BME280;51256;55.654;37.264;2022-07-10T11:20:51;98475.63;;;29.06;39.34
64821;BME280;51256;55.654;37.264;2022-07-10T11:26:07;98476.78;;;29.24;38.79
64821;BME280;51256;55.654;37.264;2022-07-10T11:28:41;98476.66;;;29.58;38.87
64821;BME280;51256;55.654;37.264;2022-07-10T11:31:06;98477.38;;;29.83;38.30
64821;BME280;51256;55.654;37.264;2022-07-10T11:33:40;98474.97;;;30.01;37.59
64821;BME280;51256;55.654;37.264;2022-07-10T11:38:43;98478.97;;;30.08;37.67
64821;BME280;51256;55.654;37.264;2022-07-10T11:41:18;98484.06;;;30.15;37.67
64821;BME280;51256;55.654;37.264;2022-07-10T11:43:48;98485.00;;;30.24;37.67
64821;BME280;51256;55.654;37.264;2022-07-10T11:46:13;98475.81;;;30.01;38.10
64821;BME280;51256;55.654;37.264;2022-07-10T11:48:40;98472.75;;;30.03;37.67
64821;BME280;51256;55.654;37.264;2022-07-10T11:54:00;98452.34;;;29.76;37.76
64821;BME280;51256;55.654;37.264;2022-07-10T11:56:31;98458.78;;;29.66;37.76
64821;BME280;51256;55.654;37.264;2022-07-10T11:59:02;98470.59;;;29.62;38.03
64821;BME280;51256;55.654;37.264;2022-07-10T12:01:30;98462.63;;;29.65;37.47
64821;BME280;51256;55.654;37.264;2022-07-10T12:04:07;98455.59;;;29.78;37.62
64821;BME280;51256;55.654;37.264;2022-07-10T12:06:43;98457.31;;;29.93;37.61
64821;BME280;51256;55.654;37.264;2022-07-10T12:09:14;98459.88;;;30.22;37.19
64821;BME280;51256;55.654;37.264;2022-07-10T12:11:40;98439.91;;;30.36;37.03
64821;BME280;51256;55.654;37.264;2022-07-10T12:14:14;98450.34;;;30.53;36.94
64821;BME280;51256;55.654;37.264;2022-07-10T12:16:43;98436.78;;;30.62;36.99
64821;BME280;51256;55.654;37.264;2022-07-10T12:19:12;98433.72;;;30.77;36.57
64821;BME280;51256;55.654;37.264;2022-07-10T12:21:42;98432.03;;;30.95;36.22
64821;BME280;51256;55.654;37.264;2022-07-10T12:24:09;98432.56;;;31.11;36.69
64821;BME280;51256;55.654;37.264;2022-07-10T12:26:36;98432.84;;;31.24;36.33
64821;BME280;51256;55.654;37.264;2022-07-10T12:29:02;98426.59;;;31.46;35.96
64821;BME280;51256;55.654;37.264;2022-07-10T12:31:30;98421.97;;;31.46;35.67
64821;BME280;51256;55.654;37.264;2022-07-10T12:34:05;98405.50;;;31.32;35.87
64821;BME280;51256;55.654;37.264;2022-07-10T12:37:06;98424.53;;;31.29;36.29
64821;BME280;51256;55.654;37.264;2022-07-10T12:39:36;98399.94;;;31.24;36.08
64821;BME280;51256;55.654;37.264;2022-07-10T12:42:06;98420.97;;;31.28;35.88
64821;BME280;51256;55.654;37.264;2022-07-10T12:47:06;98413.56;;;31.29;36.32
64821;BME280;51256;55.654;37.264;2022-07-10T12:52:38;98411.19;;;31.36;36.26
64821;BME280;51256;55.654;37.264;2022-07-10T12:55:06;98416.66;;;31.36;36.39
64821;BME280;51256;55.654;37.264;2022-07-10T12:57:32;98414.13;;;31.40;35.90
64821;BME280;51256;55.654;37.264;2022-07-10T13:00:05;98406.94;;;31.30;35.94
64821;BME280;51256;55.654;37.264;2022-07-10T13:02:31;98395.78;;;31.12;36.34
64821;BME280;51256;55.654;37.264;2022-07-10T13:05:01;98405.97;;;31.12;36.36
64821;BME280;51256;55.654;37.264;2022-07-10T13:09:58;98397.03;;;31.57;35.85
64821;BME280;51256;55.654;37.264;2022-07-10T13:12:24;98395.50;;;32.10;35.29
64821;BME280;51256;55.654;37.264;2022-07-10T13:14:50;98369.78;;;32.60;34.74
64821;BME280;51256;55.654;37.264;2022-07-10T13:17:16;98383.47;;;32.82;34.01
64821;BME280;51256;55.654;37.264;2022-07-10T13:19:44;98384.00;;;32.93;33.89
64821;BME280;51256;55.654;37.264;2022-07-10T13:22:10;98373.19;;;33.06;33.97
64821;BME280;51256;55.654;37.264;2022-07-10T13:24:35;98367.06;;;33.26;33.28
64821;BME280;51256;55.654;37.264;2022-07-10T13:27:01;98366.16;;;33.40;33.66
64821;BME280;51256;55.654;37.264;2022-07-10T13:29:27;98351.59;;;33.48;32.95
64821;BME280;51256;55.654;37.264;2022-07-10T13:31:55;98386.06;;;33.54;32.62
64821;BME280;51256;55.654;37.264;2022-07-10T13:34:24;98385.66;;;33.03;32.26